sim
Sign-in with your pilot id or email,
or register
Callsign
Passwort

Schedule Details

Flight Number: OEO4890
Departure: Erfurt Airport (EDDE) at 04:30
Arrival: Fuerteventura Airport (GCFV) at 09:25

Weather Information
Getting current METAR information for EDDE 211520Z 26008KT 9999 FEW026 BKN040 09/04 Q1025 NOSIG
Getting current METAR information for GCFV 211500Z 06004KT 010V110 CAVOK 20/14 Q1021

Schedule Frequency

Route Map